sensor_id;sensor_type;location;lat;lon;timestamp;temperature;humidity
780;DHT22;373;49.342;8.146;2022-09-28T00:00:21;9.70;99.90
780;DHT22;373;49.342;8.146;2022-09-28T00:02:48;9.70;99.90
780;DHT22;373;49.342;8.146;2022-09-28T00:05:17;9.70;99.90
780;DHT22;373;49.342;8.146;2022-09-28T00:07:44;9.80;99.90
780;DHT22;373;49.342;8.146;2022-09-28T00:10:11;9.90;99.90
780;DHT22;373;49.342;8.146;2022-09-28T00:12:38;9.90;99.90
780;DHT22;373;49.342;8.146;2022-09-28T00:15:07;10.00;99.90
780;DHT22;373;49.342;8.146;2022-09-28T00:17:34;10.00;99.90
780;DHT22;373;49.342;8.146;2022-09-28T00:20:01;10.10;99.90
780;DHT22;373;49.342;8.146;2022-09-28T00:22:31;10.20;99.90
780;DHT22;373;49.342;8.146;2022-09-28T00:24:58;10.20;99.90
780;DHT22;373;49.342;8.146;2022-09-28T00:27:25;10.20;99.90
780;DHT22;373;49.342;8.146;2022-09-28T00:29:52;10.20;99.90
780;DHT22;373;49.342;8.146;2022-09-28T00:32:20;10.20;99.90
780;DHT22;373;49.342;8.146;2022-09-28T00:34:50;10.00;99.90
780;DHT22;373;49.342;8.146;2022-09-28T00:37:18;10.10;99.90
780;DHT22;373;49.342;8.146;2022-09-28T00:39:47;10.00;99.90
780;DHT22;373;49.342;8.146;2022-09-28T00:42:17;10.20;99.90
780;DHT22;373;49.342;8.146;2022-09-28T00:44:49;10.40;99.90
780;DHT22;373;49.342;8.146;2022-09-28T00:47:39;10.40;99.90
780;DHT22;373;49.342;8.146;2022-09-28T00:50:14;10.50;99.90
780;DHT22;373;49.342;8.146;2022-09-28T00:52:47;10.30;99.90
780;DHT22;373;49.342;8.146;2022-09-28T00:55:18;10.20;99.90
780;DHT22;373;49.342;8.146;2022-09-28T00:57:49;10.10;99.90
780;DHT22;373;49.342;8.146;2022-09-28T01:00:18;10.00;99.90
780;DHT22;373;49.342;8.146;2022-09-28T01:02:46;10.20;99.90
780;DHT22;373;49.342;8.146;2022-09-28T01:05:14;10.00;99.90
780;DHT22;373;49.342;8.146;2022-09-28T01:07:45;10.00;99.90
780;DHT22;373;49.342;8.146;2022-09-28T01:10:13;9.80;99.90
780;DHT22;373;49.342;8.146;2022-09-28T01:12:42;9.80;99.90
780;DHT22;373;49.342;8.146;2022-09-28T01:15:09;10.00;99.90
780;DHT22;373;49.342;8.146;2022-09-28T01:17:51;10.00;99.90
780;DHT22;373;49.342;8.146;2022-09-28T01:20:33;10.20;99.90
780;DHT22;373;49.342;8.146;2022-09-28T01:26:37;10.00;99.90
780;DHT22;373;49.342;8.146;2022-09-28T01:29:15;10.10;99.90
780;DHT22;373;49.342;8.146;2022-09-28T01:31:46;10.00;99.90
780;DHT22;373;49.342;8.146;2022-09-28T01:34:19;10.10;99.90
780;DHT22;373;49.342;8.146;2022-09-28T01:36:53;10.10;99.90
780;DHT22;373;49.342;8.146;2022-09-28T01:39:27;10.10;99.90
780;DHT22;373;49.342;8.146;2022-09-28T01:42:02;10.20;99.90
780;DHT22;373;49.342;8.146;2022-09-28T01:44:32;10.40;99.90
780;DHT22;373;49.342;8.146;2022-09-28T01:47:09;10.60;99.90
780;DHT22;373;49.342;8.146;2022-09-28T01:49:40;10.90;99.90
780;DHT22;373;49.342;8.146;2022-09-28T01:52:12;10.80;99.90
780;DHT22;373;49.342;8.146;2022-09-28T01:54:45;10.90;99.90
780;DHT22;373;49.342;8.146;2022-09-28T01:57:20;11.10;99.90
780;DHT22;373;49.342;8.146;2022-09-28T01:59:54;11.10;99.90
780;DHT22;373;49.342;8.146;2022-09-28T02:02:26;11.20;99.90
780;DHT22;373;49.342;8.146;2022-09-28T02:04:57;11.10;99.90
780;DHT22;373;49.342;8.146;2022-09-28T02:07:30;11.10;99.90
780;DHT22;373;49.342;8.146;2022-09-28T02:10:01;11.00;99.90
780;DHT22;373;49.342;8.146;2022-09-28T02:12:35;11.00;99.90
780;DHT22;373;49.342;8.146;2022-09-28T02:15:09;11.00;99.90
780;DHT22;373;49.342;8.146;2022-09-28T02:17:37;10.90;99.90
780;DHT22;373;49.342;8.146;2022-09-28T02:20:05;10.90;99.90
780;DHT22;373;49.342;8.146;2022-09-28T02:22:37;11.10;99.90
780;DHT22;373;49.342;8.146;2022-09-28T02:25:10;11.10;99.90
780;DHT22;373;49.342;8.146;2022-09-28T02:27:43;11.10;99.90
780;DHT22;373;49.342;8.146;2022-09-28T02:30:12;11.10;99.90
780;DHT22;373;49.342;8.146;2022-09-28T02:32:44;11.20;99.90
780;DHT22;373;49.342;8.146;2022-09-28T02:35:14;11.20;99.90
780;DHT22;373;49.342;8.146;2022-09-28T02:37:43;11.40;99.90
780;DHT22;373;49.342;8.146;2022-09-28T02:40:12;11.10;99.90
780;DHT22;373;49.342;8.146;2022-09-28T02:42:50;11.00;99.90
780;DHT22;373;49.342;8.146;2022-09-28T02:45:27;11.00;99.90
780;DHT22;373;49.342;8.146;2022-09-28T02:48:06;11.10;99.90
780;DHT22;373;49.342;8.146;2022-09-28T02:50:44;11.30;99.90
780;DHT22;373;49.342;8.146;2022-09-28T02:53:30;11.20;99.90
780;DHT22;373;49.342;8.146;2022-09-28T02:56:12;11.00;99.90
780;DHT22;373;49.342;8.146;2022-09-28T02:58:52;10.90;99.90
780;DHT22;373;49.342;8.146;2022-09-28T03:01:28;11.00;99.90
780;DHT22;373;49.342;8.146;2022-09-28T03:04:05;11.00;99.90
780;DHT22;373;49.342;8.146;2022-09-28T03:06:39;11.00;99.90
780;DHT22;373;49.342;8.146;2022-09-28T03:09:12;10.70;99.90
780;DHT22;373;49.342;8.146;2022-09-28T03:11:46;10.60;99.90
780;DHT22;373;49.342;8.146;2022-09-28T03:14:15;10.80;99.90
780;DHT22;373;49.342;8.146;2022-09-28T03:16:50;10.80;99.90
780;DHT22;373;49.342;8.146;2022-09-28T03:19:21;10.80;99.90
780;DHT22;373;49.342;8.146;2022-09-28T03:21:50;10.70;99.90
780;DHT22;373;49.342;8.146;2022-09-28T03:24:19;10.70;99.90
780;DHT22;373;49.342;8.146;2022-09-28T03:26:46;10.60;99.90
780;DHT22;373;49.342;8.146;2022-09-28T03:29:14;10.50;99.90
780;DHT22;373;49.342;8.146;2022-09-28T03:31:44;10.60;99.90
780;DHT22;373;49.342;8.146;2022-09-28T03:34:13;10.50;99.90
780;DHT22;373;49.342;8.146;2022-09-28T03:36:41;10.50;99.90
780;DHT22;373;49.342;8.146;2022-09-28T03:39:08;10.70;99.90
780;DHT22;373;49.342;8.146;2022-09-28T03:41:36;10.50;99.90
780;DHT22;373;49.342;8.146;2022-09-28T03:44:04;10.50;99.90
780;DHT22;373;49.342;8.146;2022-09-28T03:46:33;10.60;99.90
780;DHT22;373;49.342;8.146;2022-09-28T03:49:05;11.00;99.90
780;DHT22;373;49.342;8.146;2022-09-28T03:51:32;11.40;99.90
780;DHT22;373;49.342;8.146;2022-09-28T03:53:59;11.40;99.90
780;DHT22;373;49.342;8.146;2022-09-28T03:56:26;11.40;99.90
780;DHT22;373;49.342;8.146;2022-09-28T03:58:53;11.20;99.90
780;DHT22;373;49.342;8.146;2022-09-28T04:01:21;10.90;99.90
780;DHT22;373;49.342;8.146;2022-09-28T04:03:53;10.90;99.90
780;DHT22;373;49.342;8.146;2022-09-28T04:06:21;10.70;99.90
780;DHT22;373;49.342;8.146;2022-09-28T04:08:49;10.70;99.90
780;DHT22;373;49.342;8.146;2022-09-28T04:11:16;10.80;99.90
780;DHT22;373;49.342;8.146;2022-09-28T04:13:47;10.70;99.90
780;DHT22;373;49.342;8.146;2022-09-28T04:16:15;10.70;99.90
780;DHT22;373;49.342;8.146;2022-09-28T04:18:49;10.80;99.90
780;DHT22;373;49.342;8.146;2022-09-28T04:21:47;10.80;99.90
780;DHT22;373;49.342;8.146;2022-09-28T04:24:16;11.00;99.90
780;DHT22;373;49.342;8.146;2022-09-28T04:26:43;10.80;99.90
780;DHT22;373;49.342;8.146;2022-09-28T04:29:12;10.70;99.90
780;DHT22;373;49.342;8.146;2022-09-28T04:31:47;10.60;99.90
780;DHT22;373;49.342;8.146;2022-09-28T04:34:17;10.60;99.90
780;DHT22;373;49.342;8.146;2022-09-28T04:36:46;10.70;99.90
780;DHT22;373;49.342;8.146;2022-09-28T04:39:14;10.70;99.90
780;DHT22;373;49.342;8.146;2022-09-28T04:41:46;10.90;99.90
780;DHT22;373;49.342;8.146;2022-09-28T04:44:15;10.80;99.90
780;DHT22;373;49.342;8.146;2022-09-28T04:46:44;10.80;99.90
780;DHT22;373;49.342;8.146;2022-09-28T04:49:43;11.00;99.90
780;DHT22;373;49.342;8.146;2022-09-28T04:52:17;11.00;99.90
780;DHT22;373;49.342;8.146;2022-09-28T04:54:44;11.10;99.90
780;DHT22;373;49.342;8.146;2022-09-28T04:57:11;11.30;99.90
780;DHT22;373;49.342;8.146;2022-09-28T04:59:38;11.00;99.90
780;DHT22;373;49.342;8.146;2022-09-28T05:02:05;11.00;99.90
780;DHT22;373;49.342;8.146;2022-09-28T05:04:51;11.00;99.90
780;DHT22;373;49.342;8.146;2022-09-28T05:07:39;11.00;99.90
780;DHT22;373;49.342;8.146;2022-09-28T05:10:07;10.90;99.90
780;DHT22;373;49.342;8.146;2022-09-28T05:12:36;10.80;99.90
780;DHT22;373;49.342;8.146;2022-09-28T05:15:04;10.70;99.90
780;DHT22;373;49.342;8.146;2022-09-28T05:17:31;10.70;99.90
780;DHT22;373;49.342;8.146;2022-09-28T05:20:09;10.60;99.90
780;DHT22;373;49.342;8.146;2022-09-28T05:22:46;10.60;99.90
780;DHT22;373;49.342;8.146;2022-09-28T05:25:29;10.60;99.90
780;DHT22;373;49.342;8.146;2022-09-28T05:28:21;10.50;99.90
780;DHT22;373;49.342;8.146;2022-09-28T05:31:08;10.60;99.90
780;DHT22;373;49.342;8.146;2022-09-28T05:33:58;10.60;99.90
780;DHT22;373;49.342;8.146;2022-09-28T05:36:31;10.60;99.90
780;DHT22;373;49.342;8.146;2022-09-28T05:39:01;10.60;99.90
780;DHT22;373;49.342;8.146;2022-09-28T05:41:30;10.60;99.90
780;DHT22;373;49.342;8.146;2022-09-28T05:43:58;10.60;99.90
780;DHT22;373;49.342;8.146;2022-09-28T05:46:26;10.50;99.90
780;DHT22;373;49.342;8.146;2022-09-28T05:48:53;10.40;99.90
780;DHT22;373;49.342;8.146;2022-09-28T05:51:20;10.50;99.90
780;DHT22;373;49.342;8.146;2022-09-28T05:53:52;10.60;99.90
780;DHT22;373;49.342;8.146;2022-09-28T05:56:24;10.60;99.90
780;DHT22;373;49.342;8.146;2022-09-28T05:58:56;10.80;99.90
780;DHT22;373;49.342;8.146;2022-09-28T06:01:26;10.80;99.90
780;DHT22;373;49.342;8.146;2022-09-28T06:03:56;10.60;99.90
780;DHT22;373;49.342;8.146;2022-09-28T06:06:25;10.60;99.90
780;DHT22;373;49.342;8.146;2022-09-28T06:08:52;10.80;99.90
780;DHT22;373;49.342;8.146;2022-09-28T06:11:47;10.70;99.90
780;DHT22;373;49.342;8.146;2022-09-28T06:15:06;10.80;99.90
780;DHT22;373;49.342;8.146;2022-09-28T06:17:36;11.10;99.90
780;DHT22;373;49.342;8.146;2022-09-28T06:20:29;11.40;99.90
780;DHT22;373;49.342;8.146;2022-09-28T06:23:17;11.40;99.90
780;DHT22;373;49.342;8.146;2022-09-28T06:25:46;11.40;99.90
780;DHT22;373;49.342;8.146;2022-09-28T06:28:16;11.10;99.90
780;DHT22;373;49.342;8.146;2022-09-28T06:30:47;11.00;99.90
780;DHT22;373;49.342;8.146;2022-09-28T06:33:17;11.00;99.90
780;DHT22;373;49.342;8.146;2022-09-28T06:35:49;11.00;99.90
780;DHT22;373;49.342;8.146;2022-09-28T06:38:17;10.90;99.90
780;DHT22;373;49.342;8.146;2022-09-28T06:40:45;11.10;99.90
780;DHT22;373;49.342;8.146;2022-09-28T06:43:25;11.30;99.90
780;DHT22;373;49.342;8.146;2022-09-28T06:46:30;11.10;99.90
780;DHT22;373;49.342;8.146;2022-09-28T06:49:21;11.60;99.90
780;DHT22;373;49.342;8.146;2022-09-28T06:52:15;12.20;99.90
780;DHT22;373;49.342;8.146;2022-09-28T06:55:04;12.20;99.90
780;DHT22;373;49.342;8.146;2022-09-28T06:57:55;11.90;99.90
780;DHT22;373;49.342;8.146;2022-09-28T07:00:25;12.00;99.90
780;DHT22;373;49.342;8.146;2022-09-28T07:03:00;12.10;99.90
780;DHT22;373;49.342;8.146;2022-09-28T07:05:55;12.20;99.90
780;DHT22;373;49.342;8.146;2022-09-28T07:08:42;12.20;99.90
780;DHT22;373;49.342;8.146;2022-09-28T07:11:39;12.40;99.90
780;DHT22;373;49.342;8.146;2022-09-28T07:14:16;13.30;99.90
780;DHT22;373;49.342;8.146;2022-09-28T07:16:47;13.20;99.90
780;DHT22;373;49.342;8.146;2022-09-28T07:19:15;13.30;99.90
780;DHT22;373;49.342;8.146;2022-09-28T07:21:43;13.00;99.90
780;DHT22;373;49.342;8.146;2022-09-28T07:24:11;12.70;99.90
780;DHT22;373;49.342;8.146;2022-09-28T07:26:57;12.60;99.90
780;DHT22;373;49.342;8.146;2022-09-28T07:29:44;13.20;99.90
780;DHT22;373;49.342;8.146;2022-09-28T07:32:23;13.40;99.90
780;DHT22;373;49.342;8.146;2022-09-28T07:35:01;13.30;99.90
780;DHT22;373;49.342;8.146;2022-09-28T07:37:38;12.90;99.90
780;DHT22;373;49.342;8.146;2022-09-28T07:40:06;12.80;99.90
780;DHT22;373;49.342;8.146;2022-09-28T07:42:52;13.30;99.90
780;DHT22;373;49.342;8.146;2022-09-28T07:45:20;14.60;99.90
780;DHT22;373;49.342;8.146;2022-09-28T07:47:53;15.50;99.90
780;DHT22;373;49.342;8.146;2022-09-28T07:50:36;15.60;98.80
780;DHT22;373;49.342;8.146;2022-09-28T07:53:14;14.80;98.80
780;DHT22;373;49.342;8.146;2022-09-28T07:56:03;15.00;99.90
780;DHT22;373;49.342;8.146;2022-09-28T07:58:38;14.70;99.90
780;DHT22;373;49.342;8.146;2022-09-28T08:01:37;14.70;97.00
780;DHT22;373;49.342;8.146;2022-09-28T08:04:08;15.40;97.00
780;DHT22;373;49.342;8.146;2022-09-28T08:06:36;15.50;97.00
780;DHT22;373;49.342;8.146;2022-09-28T08:09:07;14.90;95.60
780;DHT22;373;49.342;8.146;2022-09-28T08:11:57;14.90;95.70
780;DHT22;373;49.342;8.146;2022-09-28T08:14:43;14.60;96.40
780;DHT22;373;49.342;8.146;2022-09-28T08:17:30;15.10;97.10
780;DHT22;373;49.342;8.146;2022-09-28T08:20:01;16.40;94.00
780;DHT22;373;49.342;8.146;2022-09-28T08:22:45;16.80;94.80
780;DHT22;373;49.342;8.146;2022-09-28T08:25:13;17.30;91.80
780;DHT22;373;49.342;8.146;2022-09-28T08:27:40;17.20;92.00
780;DHT22;373;49.342;8.146;2022-09-28T08:30:08;17.10;92.00
780;DHT22;373;49.342;8.146;2022-09-28T08:32:59;16.70;92.30
780;DHT22;373;49.342;8.146;2022-09-28T08:35:43;16.30;93.90
780;DHT22;373;49.342;8.146;2022-09-28T08:38:17;16.60;93.10
780;DHT22;373;49.342;8.146;2022-09-28T08:41:08;17.20;91.60
780;DHT22;373;49.342;8.146;2022-09-28T08:44:13;17.60;92.10
780;DHT22;373;49.342;8.146;2022-09-28T08:47:02;18.10;90.90
780;DHT22;373;49.342;8.146;2022-09-28T08:49:43;18.90;88.90
780;DHT22;373;49.342;8.146;2022-09-28T08:52:38;19.00;86.30
780;DHT22;373;49.342;8.146;2022-09-28T08:55:26;19.20;84.00
780;DHT22;373;49.342;8.146;2022-09-28T08:57:58;19.20;83.30
780;DHT22;373;49.342;8.146;2022-09-28T09:00:32;19.50;84.30
780;DHT22;373;49.342;8.146;2022-09-28T09:03:04;19.60;83.00
780;DHT22;373;49.342;8.146;2022-09-28T09:05:46;18.80;83.00
780;DHT22;373;49.342;8.146;2022-09-28T09:08:46;18.10;84.90
780;DHT22;373;49.342;8.146;2022-09-28T09:11:27;17.10;88.50
780;DHT22;373;49.342;8.146;2022-09-28T09:17:01;16.80;91.10
780;DHT22;373;49.342;8.146;2022-09-28T09:20:10;16.80;92.10
780;DHT22;373;49.342;8.146;2022-09-28T09:22:57;16.70;92.30
780;DHT22;373;49.342;8.146;2022-09-28T09:25:30;15.80;94.90
780;DHT22;373;49.342;8.146;2022-09-28T09:28:27;15.60;96.10
780;DHT22;373;49.342;8.146;2022-09-28T09:31:07;15.50;97.00
780;DHT22;373;49.342;8.146;2022-09-28T09:33:57;15.70;94.70
780;DHT22;373;49.342;8.146;2022-09-28T09:37:04;16.00;95.30
780;DHT22;373;49.342;8.146;2022-09-28T09:40:02;16.50;94.80
780;DHT22;373;49.342;8.146;2022-09-28T09:43:05;16.30;92.10
780;DHT22;373;49.342;8.146;2022-09-28T09:45:58;16.80;91.30
780;DHT22;373;49.342;8.146;2022-09-28T09:48:54;17.20;92.90
780;DHT22;373;49.342;8.146;2022-09-28T09:51:35;17.60;91.80
780;DHT22;373;49.342;8.146;2022-09-28T09:54:08;17.20;92.30
780;DHT22;373;49.342;8.146;2022-09-28T09:56:40;17.60;90.70
780;DHT22;373;49.342;8.146;2022-09-28T09:59:35;16.90;91.10
780;DHT22;373;49.342;8.146;2022-09-28T10:02:21;16.40;92.80
780;DHT22;373;49.342;8.146;2022-09-28T10:04:57;16.30;93.50
780;DHT22;373;49.342;8.146;2022-09-28T10:07:38;15.40;97.90
780;DHT22;373;49.342;8.146;2022-09-28T10:10:12;15.40;97.40
780;DHT22;373;49.342;8.146;2022-09-28T10:12:48;15.30;99.00
780;DHT22;373;49.342;8.146;2022-09-28T10:15:22;15.50;98.10
780;DHT22;373;49.342;8.146;2022-09-28T10:18:11;16.00;96.30
780;DHT22;373;49.342;8.146;2022-09-28T10:21:00;16.10;96.90
780;DHT22;373;49.342;8.146;2022-09-28T10:24:00;15.70;97.30
780;DHT22;373;49.342;8.146;2022-09-28T10:26:32;15.50;97.60
780;DHT22;373;49.342;8.146;2022-09-28T10:29:03;15.80;97.30
780;DHT22;373;49.342;8.146;2022-09-28T10:31:34;16.50;96.80
780;DHT22;373;49.342;8.146;2022-09-28T10:34:05;16.40;95.30
780;DHT22;373;49.342;8.146;2022-09-28T10:36:45;16.80;93.60
780;DHT22;373;49.342;8.146;2022-09-28T10:39:27;17.00;92.40
780;DHT22;373;49.342;8.146;2022-09-28T10:41:58;17.80;92.00
780;DHT22;373;49.342;8.146;2022-09-28T10:44:29;18.40;90.50
780;DHT22;373;49.342;8.146;2022-09-28T10:47:05;18.50;90.00
780;DHT22;373;49.342;8.146;2022-09-28T10:49:39;18.60;88.30
780;DHT22;373;49.342;8.146;2022-09-28T10:52:29;17.80;88.30
780;DHT22;373;49.342;8.146;2022-09-28T10:54:57;17.50;87.80
780;DHT22;373;49.342;8.146;2022-09-28T10:57:27;16.50;90.80
780;DHT22;373;49.342;8.146;2022-09-28T10:59:59;16.90;91.70
780;DHT22;373;49.342;8.146;2022-09-28T11:05:19;17.70;87.00
780;DHT22;373;49.342;8.146;2022-09-28T11:07:47;17.30;90.10
780;DHT22;373;49.342;8.146;2022-09-28T11:10:22;17.00;90.60
780;DHT22;373;49.342;8.146;2022-09-28T11:12:54;17.40;90.40
780;DHT22;373;49.342;8.146;2022-09-28T11:15:26;17.90;88.70
780;DHT22;373;49.342;8.146;2022-09-28T11:18:17;18.50;85.80
780;DHT22;373;49.342;8.146;2022-09-28T11:20:44;18.30;84.40
780;DHT22;373;49.342;8.146;2022-09-28T11:23:20;17.60;85.90
780;DHT22;373;49.342;8.146;2022-09-28T11:25:57;17.80;85.50
780;DHT22;373;49.342;8.146;2022-09-28T11:28:29;18.00;85.60
780;DHT22;373;49.342;8.146;2022-09-28T11:30:58;18.50;83.50
780;DHT22;373;49.342;8.146;2022-09-28T11:34:14;18.10;80.60
780;DHT22;373;49.342;8.146;2022-09-28T11:37:23;18.40;78.40
780;DHT22;373;49.342;8.146;2022-09-28T11:40:01;18.10;83.20
780;DHT22;373;49.342;8.146;2022-09-28T11:42:43;17.70;84.20
780;DHT22;373;49.342;8.146;2022-09-28T11:45:34;17.70;82.50
780;DHT22;373;49.342;8.146;2022-09-28T11:48:05;17.30;82.10
780;DHT22;373;49.342;8.146;2022-09-28T11:50:49;17.20;83.10
780;DHT22;373;49.342;8.146;2022-09-28T11:53:22;17.20;84.60
780;DHT22;373;49.342;8.146;2022-09-28T11:55:58;17.60;82.70
780;DHT22;373;49.342;8.146;2022-09-28T11:58:32;17.80;79.80
780;DHT22;373;49.342;8.146;2022-09-28T12:01:06;17.90;78.90
780;DHT22;373;49.342;8.146;2022-09-28T12:03:56;18.10;80.10
780;DHT22;373;49.342;8.146;2022-09-28T12:06:32;17.70;82.00
780;DHT22;373;49.342;8.146;2022-09-28T12:09:06;17.30;80.40
780;DHT22;373;49.342;8.146;2022-09-28T12:11:59;17.20;81.30
780;DHT22;373;49.342;8.146;2022-09-28T12:14:41;17.50;83.60
780;DHT22;373;49.342;8.146;2022-09-28T12:17:16;17.50;76.90
780;DHT22;373;49.342;8.146;2022-09-28T12:19:48;17.10;78.40
780;DHT22;373;49.342;8.146;2022-09-28T12:22:23;17.00;79.80
780;DHT22;373;49.342;8.146;2022-09-28T12:24:54;16.90;80.20
780;DHT22;373;49.342;8.146;2022-09-28T12:27:26;16.90;79.70
780;DHT22;373;49.342;8.146;2022-09-28T12:30:02;16.80;79.20
780;DHT22;373;49.342;8.146;2022-09-28T12:32:35;16.90;78.70
780;DHT22;373;49.342;8.146;2022-09-28T12:35:11;16.40;78.60
780;DHT22;373;49.342;8.146;2022-09-28T12:37:51;16.20;77.70
780;DHT22;373;49.342;8.146;2022-09-28T12:40:35;16.10;77.80
780;DHT22;373;49.342;8.146;2022-09-28T12:46:27;15.90;83.60
780;DHT22;373;49.342;8.146;2022-09-28T12:49:17;16.40;82.30
780;DHT22;373;49.342;8.146;2022-09-28T12:51:49;17.10;82.40
780;DHT22;373;49.342;8.146;2022-09-28T12:54:34;17.50;77.70
780;DHT22;373;49.342;8.146;2022-09-28T12:57:13;17.90;76.40
780;DHT22;373;49.342;8.146;2022-09-28T13:00:00;18.00;73.60
780;DHT22;373;49.342;8.146;2022-09-28T13:02:49;18.20;72.30
780;DHT22;373;49.342;8.146;2022-09-28T13:05:39;18.60;72.80
780;DHT22;373;49.342;8.146;2022-09-28T13:08:15;18.70;73.40
780;DHT22;373;49.342;8.146;2022-09-28T13:10:54;18.40;71.10
780;DHT22;373;49.342;8.146;2022-09-28T13:13:33;18.60;71.60
780;DHT22;373;49.342;8.146;2022-09-28T13:16:08;18.10;71.30
780;DHT22;373;49.342;8.146;2022-09-28T13:18:48;17.70;76.20
780;DHT22;373;49.342;8.146;2022-09-28T13:21:26;17.50;74.50
780;DHT22;373;49.342;8.146;2022-09-28T13:23:59;17.70;77.50
780;DHT22;373;49.342;8.146;2022-09-28T13:26:31;17.20;78.80
780;DHT22;373;49.342;8.146;2022-09-28T13:29:02;17.20;77.30
780;DHT22;373;49.342;8.146;2022-09-28T13:31:31;17.40;80.80
780;DHT22;373;49.342;8.146;2022-09-28T13:34:01;17.70;77.70
780;DHT22;373;49.342;8.146;2022-09-28T13:36:36;17.90;75.20
780;DHT22;373;49.342;8.146;2022-09-28T13:39:35;17.80;75.00
780;DHT22;373;49.342;8.146;2022-09-28T13:42:05;17.60;74.20
780;DHT22;373;49.342;8.146;2022-09-28T13:45:04;17.80;74.20
780;DHT22;373;49.342;8.146;2022-09-28T13:47:51;17.90;74.80
780;DHT22;373;49.342;8.146;2022-09-28T13:50:28;18.20;78.00
780;DHT22;373;49.342;8.146;2022-09-28T13:53:01;18.20;75.30
780;DHT22;373;49.342;8.146;2022-09-28T13:55:35;18.00;76.50
780;DHT22;373;49.342;8.146;2022-09-28T13:58:14;18.00;74.60
780;DHT22;373;49.342;8.146;2022-09-28T14:00:46;17.80;73.50
780;DHT22;373;49.342;8.146;2022-09-28T14:03:25;18.40;75.00
780;DHT22;373;49.342;8.146;2022-09-28T14:06:06;18.30;73.50
780;DHT22;373;49.342;8.146;2022-09-28T14:08:43;17.80;75.50
780;DHT22;373;49.342;8.146;2022-09-28T14:14:26;17.40;76.80
780;DHT22;373;49.342;8.146;2022-09-28T14:20:03;17.20;79.60
780;DHT22;373;49.342;8.146;2022-09-28T14:22:42;17.70;78.60
780;DHT22;373;49.342;8.146;2022-09-28T14:25:18;17.70;78.60
780;DHT22;373;49.342;8.146;2022-09-28T14:28:00;17.50;79.40
780;DHT22;373;49.342;8.146;2022-09-28T14:30:45;17.30;74.90
780;DHT22;373;49.342;8.146;2022-09-28T14:33:23;17.30;76.10
780;DHT22;373;49.342;8.146;2022-09-28T14:35:54;17.20;77.00
780;DHT22;373;49.342;8.146;2022-09-28T14:38:24;17.20;77.80
780;DHT22;373;49.342;8.146;2022-09-28T14:41:25;17.30;74.20
780;DHT22;373;49.342;8.146;2022-09-28T14:43:59;17.20;76.50
780;DHT22;373;49.342;8.146;2022-09-28T14:46:34;17.20;75.90
780;DHT22;373;49.342;8.146;2022-09-28T14:49:03;17.00;77.90
780;DHT22;373;49.342;8.146;2022-09-28T14:54:52;17.30;76.50
780;DHT22;373;49.342;8.146;2022-09-28T14:57:24;17.40;75.90
780;DHT22;373;49.342;8.146;2022-09-28T14:59:52;17.30;74.90
780;DHT22;373;49.342;8.146;2022-09-28T15:02:29;17.20;75.10
780;DHT22;373;49.342;8.146;2022-09-28T15:05:06;17.10;74.40
780;DHT22;373;49.342;8.146;2022-09-28T15:07:42;16.80;74.30
780;DHT22;373;49.342;8.146;2022-09-28T15:10:23;16.50;77.10
780;DHT22;373;49.342;8.146;2022-09-28T15:12:51;16.40;75.50
780;DHT22;373;49.342;8.146;2022-09-28T15:15:25;16.50;75.10
780;DHT22;373;49.342;8.146;2022-09-28T15:20:48;16.60;76.60
780;DHT22;373;49.342;8.146;2022-09-28T15:23:31;16.60;74.40
780;DHT22;373;49.342;8.146;2022-09-28T15:26:00;16.60;77.80
780;DHT22;373;49.342;8.146;2022-09-28T15:28:33;16.70;77.40
780;DHT22;373;49.342;8.146;2022-09-28T15:31:02;16.50;78.00
780;DHT22;373;49.342;8.146;2022-09-28T15:33:32;16.50;78.40
780;DHT22;373;49.342;8.146;2022-09-28T15:36:19;16.50;80.00
780;DHT22;373;49.342;8.146;2022-09-28T15:38:53;16.70;81.20
780;DHT22;373;49.342;8.146;2022-09-28T15:41:22;16.70;81.80
780;DHT22;373;49.342;8.146;2022-09-28T15:44:06;17.10;80.90
780;DHT22;373;49.342;8.146;2022-09-28T15:46:35;17.00;78.40
780;DHT22;373;49.342;8.146;2022-09-28T15:49:05;17.00;79.70
780;DHT22;373;49.342;8.146;2022-09-28T15:51:46;16.80;79.40
780;DHT22;373;49.342;8.146;2022-09-28T15:54:17;16.70;83.70
780;DHT22;373;49.342;8.146;2022-09-28T15:56:50;16.90;82.50
780;DHT22;373;49.342;8.146;2022-09-28T15:59:25;16.90;81.50
780;DHT22;373;49.342;8.146;2022-09-28T16:02:02;17.00;81.90
780;DHT22;373;49.342;8.146;2022-09-28T16:04:39;17.00;81.00
780;DHT22;373;49.342;8.146;2022-09-28T16:07:27;16.90;82.80
780;DHT22;373;49.342;8.146;2022-09-28T16:09:57;16.70;81.60
780;DHT22;373;49.342;8.146;2022-09-28T16:12:40;16.70;81.80
780;DHT22;373;49.342;8.146;2022-09-28T16:15:13;16.40;79.20
780;DHT22;373;49.342;8.146;2022-09-28T16:17:48;16.00;79.70
780;DHT22;373;49.342;8.146;2022-09-28T16:20:29;15.80;80.70
780;DHT22;373;49.342;8.146;2022-09-28T16:22:58;15.70;81.60
780;DHT22;373;49.342;8.146;2022-09-28T16:25:31;15.70;84.00
780;DHT22;373;49.342;8.146;2022-09-28T16:28:00;15.90;86.10
780;DHT22;373;49.342;8.146;2022-09-28T16:30:29;15.70;83.10
780;DHT22;373;49.342;8.146;2022-09-28T16:32:58;15.80;83.30
780;DHT22;373;49.342;8.146;2022-09-28T16:35:30;15.50;84.00
780;DHT22;373;49.342;8.146;2022-09-28T16:38:03;15.40;84.20
780;DHT22;373;49.342;8.146;2022-09-28T16:40:31;15.60;86.10
780;DHT22;373;49.342;8.146;2022-09-28T16:43:00;15.60;86.10
780;DHT22;373;49.342;8.146;2022-09-28T16:45:29;15.60;86.00
780;DHT22;373;49.342;8.146;2022-09-28T16:47:58;15.40;86.60
780;DHT22;373;49.342;8.146;2022-09-28T16:50:28;15.40;87.40
780;DHT22;373;49.342;8.146;2022-09-28T16:52:58;15.40;87.90
780;DHT22;373;49.342;8.146;2022-09-28T16:55:45;15.30;88.60
780;DHT22;373;49.342;8.146;2022-09-28T16:58:13;15.30;89.80
780;DHT22;373;49.342;8.146;2022-09-28T17:00:40;15.40;90.60
780;DHT22;373;49.342;8.146;2022-09-28T17:03:14;15.60;90.90
780;DHT22;373;49.342;8.146;2022-09-28T17:05:45;15.70;91.20
780;DHT22;373;49.342;8.146;2022-09-28T17:08:14;15.90;90.80
780;DHT22;373;49.342;8.146;2022-09-28T17:10:46;15.80;90.60
780;DHT22;373;49.342;8.146;2022-09-28T17:13:15;15.60;91.90
780;DHT22;373;49.342;8.146;2022-09-28T17:15:42;15.60;92.60
780;DHT22;373;49.342;8.146;2022-09-28T17:18:13;15.50;92.80
780;DHT22;373;49.342;8.146;2022-09-28T17:20:42;15.60;92.30
780;DHT22;373;49.342;8.146;2022-09-28T17:23:11;15.30;93.00
780;DHT22;373;49.342;8.146;2022-09-28T17:25:39;15.50;92.00
780;DHT22;373;49.342;8.146;2022-09-28T17:28:15;15.50;92.20
780;DHT22;373;49.342;8.146;2022-09-28T17:30:43;15.50;92.30
780;DHT22;373;49.342;8.146;2022-09-28T17:33:10;15.80;92.20
780;DHT22;373;49.342;8.146;2022-09-28T17:35:38;15.80;91.20
780;DHT22;373;49.342;8.146;2022-09-28T17:38:05;15.90;91.00
780;DHT22;373;49.342;8.146;2022-09-28T17:40:34;15.50;91.80
780;DHT22;373;49.342;8.146;2022-09-28T17:43:01;15.10;93.40
780;DHT22;373;49.342;8.146;2022-09-28T17:45:31;15.30;92.40
780;DHT22;373;49.342;8.146;2022-09-28T17:47:58;15.20;93.30
780;DHT22;373;49.342;8.146;2022-09-28T17:50:28;15.20;93.90
780;DHT22;373;49.342;8.146;2022-09-28T17:52:57;15.40;93.00
780;DHT22;373;49.342;8.146;2022-09-28T17:55:29;15.10;93.70